Time;durP1;ratioP1;P1;durP2;ratioP2;P2;SDS_P1;SDS_P2;PMS_P1;PMS_P2;Temp;Humidity;BMP_temperature;BMP_pressure;BME280_temperature;BME280_humidity;BME280_pressure;Samples;Min_cycle;Max_cycle;Signal;HPM_P1;HPM_P2
2023/01/16 00:01:36;;;;;;;27.97;17.63;;;;;;;7.40;94.36;99593.19;5091561;28;20211;-53
2023/01/16 00:04:02;;;;;;;27.57;17.33;;;;;;;7.40;94.39;99600.00;5094353;28;20579;-53
2023/01/16 00:06:29;;;;;;;24.23;17.13;;;;;;;7.35;94.54;99594.75;5095798;28;20183;-53
2023/01/16 00:08:56;;;;;;;23.70;17.43;;;;;;;7.28;95.14;99589.41;5095867;28;20297;-53
2023/01/16 00:11:23;;;;;;;23.80;16.47;;;;;;;7.14;95.41;99591.53;5095709;28;20263;-53
2023/01/16 00:13:52;;;;;;;23.50;16.17;;;;;;;7.04;96.41;99592.94;5095641;28;20197;-52
2023/01/16 00:16:21;;;;;;;24.73;16.10;;;;;;;7.05;96.69;99587.00;5093430;28;20198;-52
2023/01/16 00:18:48;;;;;;;21.33;15.23;;;;;;;6.97;96.55;99583.34;5095151;28;20278;-54
2023/01/16 00:21:16;;;;;;;25.13;15.57;;;;;;;6.88;97.80;99583.03;5075290;28;20233;-53
2023/01/16 00:23:42;;;;;;;21.93;15.77;;;;;;;6.79;98.40;99572.53;5075228;28;20194;-53
2023/01/16 00:26:11;;;;;;;25.77;16.23;;;;;;;6.87;97.88;99570.22;5075179;28;20541;-53
2023/01/16 00:28:38;;;;;;;27.27;17.93;;;;;;;6.88;97.53;99575.38;5075191;28;20193;-54
2023/01/16 00:31:07;;;;;;;26.43;16.20;;;;;;;6.90;97.73;99570.31;5074991;28;20195;-52
2023/01/16 00:33:34;;;;;;;28.27;16.70;;;;;;;6.89;97.74;99574.59;5075149;28;20197;-53
2023/01/16 00:36:01;;;;;;;24.17;16.23;;;;;;;6.88;97.75;99571.97;5071981;28;20552;-54
2023/01/16 00:38:27;;;;;;;25.67;17.20;;;;;;;6.87;97.61;99588.09;5069713;28;20545;-54
2023/01/16 00:40:54;;;;;;;24.53;17.60;;;;;;;6.56;98.32;99573.47;5071916;28;20237;-54
2023/01/16 00:43:21;;;;;;;23.90;17.83;;;;;;;6.59;99.26;99578.69;5064689;28;20207;-54
2023/01/16 00:45:49;;;;;;;28.57;19.17;;;;;;;6.39;99.26;99575.47;5066694;28;20197;-54
2023/01/16 00:48:17;;;;;;;25.67;18.77;;;;;;;6.42;100.00;99573.03;5070694;28;20635;-54
2023/01/16 00:50:43;;;;;;;29.10;20.07;;;;;;;6.33;100.00;99566.72;5069177;28;20195;-54
2023/01/16 00:53:10;;;;;;;26.40;20.13;;;;;;;6.29;100.00;99563.19;5064921;28;20575;-54
2023/01/16 00:55:37;;;;;;;32.23;20.30;;;;;;;6.19;100.00;99561.16;5064204;28;20625;-55
2023/01/16 00:58:04;;;;;;;31.20;20.97;;;;;;;6.12;100.00;99556.69;5063577;28;20191;-54
2023/01/16 01:00:32;;;;;;;30.60;21.73;;;;;;;6.08;100.00;99562.47;5062079;28;21611;-54
2023/01/16 01:02:59;;;;;;;31.30;22.00;;;;;;;5.98;100.00;99541.69;5071786;28;20272;-53
2023/01/16 01:05:27;;;;;;;34.27;22.70;;;;;;;6.07;100.00;99557.31;5074466;28;20194;-53
2023/01/16 01:07:54;;;;;;;30.20;22.37;;;;;;;6.12;100.00;99560.91;5074444;28;20192;-54
2023/01/16 01:10:21;;;;;;;30.57;21.73;;;;;;;6.15;100.00;99561.00;5074483;28;20206;-54
2023/01/16 01:12:47;;;;;;;33.83;22.77;;;;;;;6.17;100.00;99564.47;5074439;28;20264;-54
2023/01/16 01:15:14;;;;;;;35.20;22.80;;;;;;;6.21;100.00;99558.63;5073403;28;20242;-53
2023/01/16 01:17:41;;;;;;;34.83;23.57;;;;;;;6.29;100.00;99557.25;5074584;28;20195;-54
2023/01/16 01:20:09;;;;;;;34.77;24.63;;;;;;;6.32;100.00;99559.88;5074505;28;20250;-54
2023/01/16 01:22:38;;;;;;;33.37;22.63;;;;;;;6.43;100.00;99558.56;5074218;28;20226;-54
2023/01/16 01:25:05;;;;;;;36.70;23.60;;;;;;;6.43;100.00;99549.22;5074771;28;20571;-54
2023/01/16 01:27:32;;;;;;;33.87;21.57;;;;;;;6.35;100.00;99549.78;5074392;28;20278;-54
2023/01/16 01:29:59;;;;;;;34.33;24.70;;;;;;;6.31;100.00;99545.41;5074123;28;20190;-54
2023/01/16 01:32:25;;;;;;;35.40;24.10;;;;;;;6.24;100.00;99551.09;5074232;28;20193;-54
2023/01/16 01:34:52;;;;;;;39.47;29.67;;;;;;;6.30;100.00;99544.53;5073269;28;20530;-54
2023/01/16 01:37:19;;;;;;;37.27;26.37;;;;;;;6.22;100.00;99545.09;5073142;28;20189;-54
2023/01/16 01:39:47;;;;;;;35.97;26.33;;;;;;;6.29;100.00;99539.38;5073666;28;20230;-54
2023/01/16 01:45:02;;;;;;;38.47;26.87;;;;;;;6.39;100.00;99534.63;5074044;28;20276;-53
2023/01/16 01:47:34;;;;;;;32.57;25.17;;;;;;;5.75;100.00;99433.78;5073840;28;20205;-54
2023/01/16 01:50:05;;;;;;;39.63;26.73;;;;;;;6.32;99.64;99536.91;5073813;28;20198;-54
2023/01/16 01:52:34;;;;;;;38.43;26.93;;;;;;;6.39;99.94;99534.63;5073523;28;20221;-54
2023/01/16 01:55:05;;;;;;;42.93;27.90;;;;;;;6.35;100.00;99507.28;5073690;28;20326;-53
2023/01/16 01:57:38;;;;;;;35.43;24.00;;;;;;;6.54;99.40;99535.13;5073619;28;20244;-54
2023/01/16 02:00:08;;;;;;;27.20;22.63;;;;;;;6.58;99.29;99527.56;5073875;28;20270;-54
2023/01/16 02:02:40;;;;;;;31.43;23.63;;;;;;;6.62;99.27;99525.16;5073488;28;20222;-54
2023/01/16 02:05:12;;;;;;;33.20;23.47;;;;;;;6.60;99.16;99526.81;5074167;28;20272;-54
2023/01/16 02:07:39;;;;;;;34.20;23.97;;;;;;;6.59;99.09;99522.53;5073322;28;20180;-54
2023/01/16 02:10:15;;;;;;;35.37;23.47;;;;;;;6.64;98.47;99530.34;5073442;28;20191;-54
2023/01/16 02:12:42;;;;;;;35.83;24.17;;;;;;;6.66;98.81;99516.78;5073487;28;20590;-54
2023/01/16 02:15:09;;;;;;;33.07;22.10;;;;;;;6.71;98.60;99524.59;5073178;28;20537;-54
2023/01/16 02:20:29;;;;;;;30.83;21.53;;;;;;;6.73;97.98;99522.97;5073329;28;20294;-54
2023/01/16 02:23:44;;;;;;;30.97;21.97;;;;;;;6.74;97.13;99524.69;5073269;28;20223;-53
2023/01/16 02:26:43;;;;;;;31.47;21.53;;;;;;;6.76;97.02;99517.94;5011724;28;20192;-54
2023/01/16 02:29:29;;;;;;;32.60;22.03;;;;;;;6.71;97.38;99515.25;5073122;28;20255;-53
2023/01/16 02:32:09;;;;;;;36.03;21.20;;;;;;;6.70;97.09;99498.22;5072938;28;20650;-55
2023/01/16 02:34:55;;;;;;;31.87;21.37;;;;;;;6.78;96.94;99517.19;5072648;28;20194;-54
2023/01/16 02:37:36;;;;;;;30.97;20.80;;;;;;;6.80;97.26;99519.78;5072142;28;20252;-54
2023/01/16 02:40:17;;;;;;;33.07;21.57;;;;;;;6.81;97.09;99511.31;5072576;28;20215;-54
2023/01/16 02:42:49;;;;;;;31.90;21.57;;;;;;;6.78;97.37;99522.31;5073190;28;20300;-54
2023/01/16 02:45:29;;;;;;;36.03;22.20;;;;;;;6.77;97.49;99523.09;5072629;28;20205;-54
2023/01/16 02:48:07;;;;;;;32.93;21.47;;;;;;;6.74;97.34;99527.25;5072989;28;20194;-54
2023/01/16 02:50:40;;;;;;;33.25;25.70;;;;;;;6.84;98.20;99516.53;5071452;28;20425;-54
2023/01/16 02:53:15;;;;;;;30.73;21.63;;;;;;;6.96;96.84;99534.75;5072657;28;20196;-54
2023/01/16 02:55:47;;;;;;;29.67;21.10;;;;;;;7.02;96.06;99530.72;5072508;28;20262;-54
2023/01/16 02:58:16;;;;;;;28.80;20.20;;;;;;;7.02;95.74;99520.50;5072312;28;20751;-53
2023/01/16 03:00:51;;;;;;;30.90;21.07;;;;;;;7.10;95.27;99520.72;5072536;28;20188;-54
2023/01/16 03:03:37;;;;;;;31.00;21.20;;;;;;;7.11;95.13;99525.03;5072316;28;20218;-54
2023/01/16 03:06:15;;;;;;;31.87;21.17;;;;;;;7.09;94.84;99516.44;5072451;28;20647;-54
2023/01/16 03:08:50;;;;;;;27.63;20.10;;;;;;;7.08;94.97;99509.59;5071528;28;20245;-54
2023/01/16 03:11:25;;;;;;;32.33;19.53;;;;;;;7.09;94.68;99513.88;5072198;28;20198;-54
2023/01/16 03:14:20;;;;;;;32.00;22.20;;;;;;;7.13;94.99;99502.94;5072254;28;20201;-54
2023/01/16 03:17:00;;;;;;;32.07;21.47;;;;;;;7.13;95.18;99495.28;5066396;28;20187;-54
2023/01/16 03:19:43;;;;;;;32.53;21.70;;;;;;;7.13;94.55;99487.59;5072357;28;20190;-55
2023/01/16 03:22:14;;;;;;;38.20;21.93;;;;;;;7.07;94.82;99485.75;5072276;28;20222;-54
2023/01/16 03:24:57;;;;;;;33.22;23.52;;;;;;;7.05;95.42;99482.28;5071687;28;20441;-54
2023/01/16 03:27:34;;;;;;;29.60;22.00;;;;;;;7.18;95.20;99506.50;5072183;28;20210;-54
2023/01/16 03:30:11;;;;;;;31.87;23.10;;;;;;;7.07;95.16;99482.31;5071999;28;20686;-54
2023/01/16 03:32:44;;;;;;;34.33;23.53;;;;;;;6.96;95.09;99478.56;5072463;28;20186;-54
2023/01/16 03:35:17;;;;;;;31.73;22.60;;;;;;;6.94;95.52;99472.56;5072021;28;20201;-53
2023/01/16 03:37:50;;;;;;;35.60;25.33;;;;;;;7.02;95.42;99481.31;5071681;28;20426;-54
2023/01/16 03:40:22;;;;;;;34.07;24.23;;;;;;;7.00;95.58;99475.31;5071857;28;20350;-54
2023/01/16 03:42:54;;;;;;;37.97;23.60;;;;;;;7.07;95.82;99475.53;5067385;28;20222;-55
2023/01/16 03:45:27;;;;;;;39.13;26.20;;;;;;;7.09;95.57;99462.78;5060307;28;20549;-54
2023/01/16 03:48:00;;;;;;;32.37;24.80;;;;;;;7.11;95.12;99463.72;5053104;28;20250;-55
2023/01/16 03:50:29;;;;;;;34.53;23.53;;;;;;;7.13;95.30;99462.06;5060543;28;20315;-55
2023/01/16 03:53:01;;;;;;;33.63;23.60;;;;;;;7.07;95.27;99465.31;5062071;28;20188;-55
2023/01/16 03:55:32;;;;;;;35.43;23.40;;;;;;;6.98;95.26;99467.56;5065138;28;20193;-54
2023/01/16 03:58:05;;;;;;;36.80;24.50;;;;;;;6.77;95.46;99453.31;5062242;28;20193;-54
2023/01/16 04:00:40;;;;;;;38.53;26.20;;;;;;;6.73;96.76;99461.69;5061617;28;20195;-55
2023/01/16 04:03:11;;;;;;;38.20;26.43;;;;;;;6.69;97.53;99459.84;5068315;28;20217;-58
2023/01/16 04:05:48;;;;;;;39.90;26.77;;;;;;;6.75;97.70;99462.59;5059242;28;20191;-55
2023/01/16 04:08:36;;;;;;;42.13;29.63;;;;;;;6.85;97.98;99462.94;5060908;28;20525;-54
2023/01/16 04:11:04;;;;;;;43.57;26.90;;;;;;;6.94;97.23;99457.22;5066537;28;20195;-55
2023/01/16 04:13:34;;;;;;;39.07;25.17;;;;;;;7.01;96.93;99446.38;5068462;28;20203;-55
2023/01/16 04:16:03;;;;;;;34.07;25.83;;;;;;;7.03;96.04;99445.59;5060769;28;21508;-55
2023/01/16 04:18:33;;;;;;;41.78;26.45;;;;;;;7.08;95.74;99444.06;5068894;28;20438;-54
2023/01/16 04:21:04;;;;;;;38.63;25.10;;;;;;;7.07;96.13;99432.09;5071079;28;20243;-55
2023/01/16 04:23:31;;;;;;;34.80;23.27;;;;;;;7.11;95.22;99428.78;5071131;28;20268;-54
2023/01/16 04:25:58;;;;;;;33.27;22.97;;;;;;;7.18;95.11;99423.84;5071053;28;20191;-54
2023/01/16 04:28:24;;;;;;;35.93;24.20;;;;;;;7.15;94.73;99422.09;5071172;28;20183;-54
2023/01/16 04:30:51;;;;;;;36.17;23.03;;;;;;;7.16;94.97;99421.28;5071019;28;20264;-54
2023/01/16 04:33:18;;;;;;;39.03;25.10;;;;;;;7.16;94.71;99421.28;5071780;28;20202;-54
2023/01/16 04:35:45;;;;;;;38.60;24.10;;;;;;;7.11;94.67;99413.47;5071141;28;20183;-54
2023/01/16 04:38:13;;;;;;;35.97;22.23;;;;;;;7.14;94.94;99415.25;5070984;28;20184;-55
2023/01/16 04:40:40;;;;;;;34.47;23.23;;;;;;;7.18;94.23;99419.63;5071031;28;20231;-55
2023/01/16 04:43:07;;;;;;;40.77;24.60;;;;;;;7.18;94.44;99411.09;5071162;28;20223;-53
2023/01/16 04:45:34;;;;;;;35.87;22.80;;;;;;;7.21;94.31;99413.72;5071154;28;20191;-53
2023/01/16 04:48:00;;;;;;;36.53;23.87;;;;;;;7.19;94.94;99413.69;5071579;28;20545;-53
2023/01/16 04:50:27;;;;;;;40.45;26.35;;;;;;;7.14;95.00;99400.78;5072257;28;20441;-53
2023/01/16 04:52:54;;;;;;;38.90;24.93;;;;;;;7.26;95.13;99418.16;5074674;28;20203;-53
2023/01/16 04:55:22;;;;;;;41.70;25.23;;;;;;;7.13;94.74;99413.53;5074896;28;20187;-53
2023/01/16 04:57:49;;;;;;;37.27;24.73;;;;;;;6.55;95.43;99331.81;5074536;28;20202;-55
2023/01/16 05:00:16;;;;;;;38.03;25.50;;;;;;;6.91;95.78;99376.28;5074070;28;20673;-53
2023/01/16 05:02:43;;;;;;;41.90;26.13;;;;;;;7.16;94.61;99413.63;5073961;28;20234;-54
2023/01/16 05:05:10;;;;;;;36.63;24.40;;;;;;;7.16;94.29;99411.06;5074410;28;20191;-54
2023/01/16 05:07:37;;;;;;;44.30;26.50;;;;;;;7.23;94.16;99409.53;5073323;28;20618;-54
2023/01/16 05:10:04;;;;;;;37.70;24.63;;;;;;;7.22;93.85;99410.38;5074095;28;20680;-54
2023/01/16 05:12:33;;;;;;;41.13;25.83;;;;;;;7.20;93.94;99407.75;5074074;28;20297;-54
2023/01/16 05:14:59;;;;;;;38.80;25.60;;;;;;;7.22;94.33;99415.47;5074095;28;20683;-54
2023/01/16 05:17:26;;;;;;;40.67;24.90;;;;;;;7.19;94.07;99412.84;5073920;28;20659;-54
2023/01/16 05:19:53;;;;;;;37.97;25.40;;;;;;;7.19;94.11;99415.38;5073978;28;20234;-53
2023/01/16 05:22:20;;;;;;;41.20;26.37;;;;;;;7.23;94.09;99417.19;5073834;28;20670;-53
2023/01/16 05:24:47;;;;;;;38.67;25.43;;;;;;;7.27;93.94;99412.22;5074218;28;20198;-58
2023/01/16 05:27:13;;;;;;;42.37;26.70;;;;;;;7.29;94.21;99413.13;5073863;28;20698;-53
2023/01/16 05:29:42;;;;;;;38.90;25.23;;;;;;;7.26;94.55;99400.25;5073589;28;20202;-53
2023/01/16 05:32:08;;;;;;;38.63;24.83;;;;;;;7.34;94.95;99401.34;5073829;28;20194;-54
2023/01/16 05:34:35;;;;;;;40.63;28.20;;;;;;;7.36;94.44;99392.00;5074389;28;20196;-54
2023/01/16 05:37:02;;;;;;;46.93;28.97;;;;;;;7.38;94.44;99392.06;5073615;28;20194;-54
2023/01/16 05:39:28;;;;;;;46.13;27.93;;;;;;;7.34;94.20;99388.56;5073393;28;20745;-53
2023/01/16 05:41:55;;;;;;;51.67;31.50;;;;;;;7.44;94.45;99382.03;5073559;28;20199;-54
2023/01/16 05:44:22;;;;;;;42.87;28.27;;;;;;;7.44;94.06;99377.78;5073409;28;20229;-54
2023/01/16 05:46:51;;;;;;;40.50;25.30;;;;;;;7.43;93.63;99370.06;5073184;28;20187;-54
2023/01/16 05:49:18;;;;;;;44.03;27.47;;;;;;;7.41;93.33;99379.38;5072569;28;20667;-54
2023/01/16 05:51:45;;;;;;;41.10;26.87;;;;;;;7.44;93.46;99382.03;5073565;28;20274;-54
2023/01/16 05:54:12;;;;;;;39.67;25.57;;;;;;;7.43;93.69;99380.28;5073237;28;20195;-54
2023/01/16 05:56:39;;;;;;;37.10;25.47;;;;;;;7.48;93.75;99394.03;5073241;28;20294;-54
2023/01/16 05:59:06;;;;;;;34.40;24.13;;;;;;;7.52;93.51;99390.75;5073083;28;20219;-54
2023/01/16 06:01:33;;;;;;;43.60;25.20;;;;;;;7.47;93.30;99377.00;5072950;28;20199;-54
2023/01/16 06:04:01;;;;;;;37.83;25.33;;;;;;;7.51;93.13;99382.22;5072854;28;20223;-53
2023/01/16 06:06:28;;;;;;;36.20;24.87;;;;;;;7.43;92.87;99382.81;5072871;28;20192;-54
2023/01/16 06:08:55;;;;;;;36.27;22.10;;;;;;;7.26;93.79;99378.94;5072113;28;20188;-53
2023/01/16 06:11:22;;;;;;;34.37;24.23;;;;;;;7.19;93.89;99379.63;5072832;28;20192;-54
2023/01/16 06:13:48;;;;;;;38.70;25.40;;;;;;;7.25;94.64;99378.06;5072755;28;20655;-54
2023/01/16 06:16:15;;;;;;;38.03;25.43;;;;;;;7.24;94.40;99384.03;5073017;28;20195;-54
2023/01/16 06:18:42;;;;;;;43.20;27.77;;;;;;;7.30;93.91;99383.34;5072333;28;20925;-54
2023/01/16 06:21:10;;;;;;;36.20;24.40;;;;;;;7.31;93.66;99383.34;5072962;28;20195;-54
2023/01/16 06:23:37;;;;;;;39.63;25.37;;;;;;;7.33;93.05;99386.84;5072494;28;20240;-53
2023/01/16 06:26:05;;;;;;;47.27;26.17;;;;;;;7.38;93.20;99380.16;5072249;28;20282;-54
2023/01/16 06:28:32;;;;;;;39.67;24.93;;;;;;;7.41;93.31;99376.81;5071054;28;20253;-54
2023/01/16 06:30:59;;;;;;;45.47;26.07;;;;;;;7.38;92.84;99377.59;5081228;28;20602;-53
2023/01/16 06:33:26;;;;;;;36.83;24.90;;;;;;;7.39;93.04;99370.81;5072161;28;20191;-54
2023/01/16 06:35:53;;;;;;;38.43;25.87;;;;;;;7.33;93.01;99356.19;5071489;28;20277;-54
2023/01/16 06:38:21;;;;;;;35.87;23.73;;;;;;;7.31;92.32;99380.81;5062869;28;20188;-54
2023/01/16 06:40:48;;;;;;;34.30;22.80;;;;;;;7.36;91.10;99378.41;5079903;28;20242;-54
2023/01/16 06:43:16;;;;;;;34.73;22.90;;;;;;;7.40;90.74;99375.06;5092713;28;20214;-54
2023/01/16 06:45:44;;;;;;;31.70;21.80;;;;;;;7.44;90.08;99377.78;5092512;28;20198;-54
2023/01/16 06:48:11;;;;;;;53.60;32.03;;;;;;;7.43;90.56;99372.59;5092088;28;20194;-55
2023/01/16 06:50:38;;;;;;;43.60;26.20;;;;;;;7.53;90.30;99366.91;5092099;28;20559;-54
2023/01/16 06:53:05;;;;;;;32.47;21.50;;;;;;;7.43;88.14;99370.94;5092022;28;20198;-53
2023/01/16 06:55:33;;;;;;;32.37;20.20;;;;;;;7.45;88.39;99364.16;5091746;28;20191;-55
2023/01/16 06:58:00;;;;;;;28.90;20.77;;;;;;;7.32;87.23;99368.91;5079041;28;20293;-54
2023/01/16 07:00:27;;;;;;;28.60;21.17;;;;;;;7.33;88.01;99363.84;5083036;28;20544;-54
2023/01/16 07:02:56;;;;;;;33.78;26.83;;;;;;;7.49;88.34;99363.41;5062993;28;20455;-54
2023/01/16 07:05:24;;;;;;;36.40;28.67;;;;;;;7.58;87.67;99360.25;5063178;28;20188;-55
2023/01/16 07:07:51;;;;;;;33.47;23.03;;;;;;;7.57;87.22;99361.94;5062727;28;20186;-52
2023/01/16 07:10:20;;;;;;;36.93;24.67;;;;;;;7.40;87.43;99355.50;5067645;28;20206;-54
2023/01/16 07:12:48;;;;;;;41.50;26.30;;;;;;;7.42;88.30;99343.63;5091524;28;20267;-53
2023/01/16 07:23:35;;;;;;;37.30;25.73;;;;;;;7.50;88.12;99323.34;5068449;28;20218;-53
2023/01/16 07:26:05;;;;;;;36.40;24.57;;;;;;;7.51;87.83;99318.31;5071497;28;20202;-52
2023/01/16 07:28:34;;;;;;;33.93;22.97;;;;;;;7.47;87.47;99311.38;5070871;28;20191;-56
2023/01/16 07:31:03;;;;;;;36.67;23.40;;;;;;;7.46;87.81;99306.22;5068907;28;20191;-56
2023/01/16 07:33:29;;;;;;;34.23;23.63;;;;;;;7.51;87.62;99300.41;5070448;28;20201;-56
2023/01/16 07:35:56;;;;;;;35.03;24.00;;;;;;;7.56;87.34;99301.38;5076400;28;20194;-55
2023/01/16 07:38:23;;;;;;;31.07;21.90;;;;;;;7.58;87.35;99309.13;5087469;28;20268;-56
2023/01/16 07:40:50;;;;;;;31.57;21.60;;;;;;;7.65;87.16;99310.97;5070331;28;20231;-57
2023/01/16 07:43:18;;;;;;;31.73;23.27;;;;;;;7.71;86.05;99308.59;5070914;28;20194;-57
2023/01/16 07:45:51;;;;;;;32.93;22.23;;;;;;;7.72;85.61;99303.50;5069023;28;20218;-57
2023/01/16 07:48:18;;;;;;;32.97;22.97;;;;;;;7.83;85.72;99302.91;5069828;28;20194;-55
2023/01/16 07:50:50;;;;;;;31.47;21.80;;;;;;;7.68;85.90;99294.03;5069937;28;20571;-54
2023/01/16 07:53:21;;;;;;;34.47;23.20;;;;;;;7.70;86.64;99294.06;5070974;28;20192;-54
2023/01/16 07:55:48;;;;;;;34.70;22.83;;;;;;;7.69;86.63;99288.06;5070755;28;20671;-54
2023/01/16 07:58:15;;;;;;;31.77;21.23;;;;;;;7.78;86.00;99284.00;5071210;28;20212;-54
2023/01/16 08:00:42;;;;;;;34.53;21.50;;;;;;;7.83;85.52;99280.72;5071110;28;20676;-54
2023/01/16 08:03:10;;;;;;;35.87;22.47;;;;;;;7.73;85.15;99279.66;5071101;28;20185;-55
2023/01/16 08:05:37;;;;;;;32.10;21.47;;;;;;;7.85;85.22;99283.34;5071198;28;20245;-55
2023/01/16 08:08:05;;;;;;;36.27;21.90;;;;;;;7.91;85.06;99294.56;5071461;28;20190;-56
2023/01/16 08:10:31;;;;;;;35.27;22.57;;;;;;;7.88;85.66;99296.19;5070975;28;20622;-56
2023/01/16 08:12:58;;;;;;;33.70;22.53;;;;;;;8.02;86.21;99302.50;5070941;28;20184;-56
2023/01/16 08:15:25;;;;;;;31.37;20.20;;;;;;;8.07;84.79;99322.25;5070753;28;20202;-57
2023/01/16 08:17:52;;;;;;;42.90;26.10;;;;;;;8.18;83.84;99336.16;5070953;28;20669;-57
2023/01/16 08:20:20;;;;;;;35.67;22.20;;;;;;;8.30;83.10;99341.56;5071169;28;20191;-57
2023/01/16 08:22:49;;;;;;;32.43;23.03;;;;;;;8.39;82.60;99340.91;5071174;28;20190;-56
2023/01/16 08:25:17;;;;;;;34.07;22.20;;;;;;;8.42;82.06;99335.88;5073424;28;20691;-55
2023/01/16 08:27:44;;;;;;;41.50;24.70;;;;;;;8.46;82.02;99335.09;5074544;28;20200;-55
2023/01/16 08:30:13;;;;;;;38.80;24.07;;;;;;;8.03;82.85;99329.78;5074713;28;20248;-55
2023/01/16 08:32:40;;;;;;;40.23;22.90;;;;;;;7.70;83.50;99315.38;5074773;28;20236;-55
2023/01/16 08:35:08;;;;;;;44.17;25.47;;;;;;;7.54;84.48;99318.38;5074793;28;20192;-55
2023/01/16 08:37:37;;;;;;;51.80;27.67;;;;;;;7.46;85.95;99311.34;5074603;28;20195;-55
2023/01/16 08:40:05;;;;;;;44.20;25.17;;;;;;;7.12;86.47;99313.03;5075739;28;20228;-55
2023/01/16 08:53:34;;;;;;;44.80;23.63;;;;;;;7.39;86.55;99312.88;5061361;28;20228;-55
2023/01/16 08:56:01;;;;;;;36.73;22.53;;;;;;;7.36;86.21;99296.63;5074166;28;20190;-55
2023/01/16 08:58:27;;;;;;;40.77;23.00;;;;;;;7.41;86.30;99285.69;5074270;28;20191;-54
2023/01/16 09:00:54;;;;;;;33.97;23.13;;;;;;;7.57;85.77;99285.22;5074064;28;20207;-54
2023/01/16 09:03:21;;;;;;;42.87;26.93;;;;;;;7.74;84.76;99283.09;5073158;28;20940;-55
2023/01/16 09:05:48;;;;;;;37.50;24.10;;;;;;;7.49;84.00;99279.06;5073636;28;20501;-56
2023/01/16 09:08:14;;;;;;;34.97;23.07;;;;;;;7.57;84.69;99289.47;5053757;28;20294;-55
2023/01/16 09:13:48;;;;;;;41.73;25.27;;;;;;;7.75;84.48;99281.41;5054079;28;20245;-55
2023/01/16 09:16:14;;;;;;;39.17;24.77;;;;;;;8.04;83.12;99281.25;5053508;28;20477;-54
2023/01/16 09:18:40;;;;;;;39.87;23.83;;;;;;;8.13;82.90;99288.25;5053705;28;20639;-55
2023/01/16 09:21:07;;;;;;;30.50;19.33;;;;;;;8.09;81.76;99283.88;5053983;28;20194;-55
2023/01/16 09:23:34;;;;;;;27.30;17.40;;;;;;;7.71;82.77;99260.00;5053485;28;20615;-55
2023/01/16 09:26:02;;;;;;;27.70;18.97;;;;;;;7.71;83.41;99260.88;5053537;28;20199;-55
2023/01/16 09:28:29;;;;;;;35.47;19.17;;;;;;;7.80;83.32;99254.25;5053400;28;20722;-56
2023/01/16 09:30:56;;;;;;;31.63;21.07;;;;;;;7.90;83.32;99257.03;5055715;28;20199;-55
2023/01/16 09:33:23;;;;;;;38.40;25.97;;;;;;;7.83;83.49;99260.25;5072164;28;20682;-56
2023/01/16 09:35:49;;;;;;;40.83;24.33;;;;;;;7.35;85.46;99252.31;5072870;28;20246;-54
2023/01/16 09:38:16;;;;;;;38.77;25.63;;;;;;;7.33;85.87;99241.19;5073394;28;20202;-55
2023/01/16 09:40:49;;;;;;;42.17;25.43;;;;;;;7.29;86.01;99195.94;5073263;28;20223;-55
2023/01/16 09:43:40;;;;;;;40.03;24.93;;;;;;;7.58;86.01;99233.25;5073627;28;20199;-55
2023/01/16 09:46:13;;;;;;;39.13;24.20;;;;;;;7.62;86.33;99229.09;5070177;28;20352;-56
2023/01/16 09:48:47;;;;;;;46.20;25.87;;;;;;;7.63;86.38;99221.47;5071521;28;20283;-55
2023/01/16 09:51:19;;;;;;;40.93;25.30;;;;;;;7.77;86.17;99213.25;5069525;28;20275;-55
2023/01/16 09:59:32;;;;;;;44.70;27.73;;;;;;;7.77;86.93;99200.47;5070463;28;20617;-55
2023/01/16 10:02:08;;;;;;;42.53;28.20;;;;;;;7.94;85.29;99201.72;5071993;28;20194;-55
2023/01/16 10:04:36;;;;;;;35.73;24.23;;;;;;;7.96;84.81;99195.78;5071629;28;20223;-55
2023/01/16 10:07:38;;;;;;;36.70;23.87;;;;;;;7.95;84.00;99196.59;5072218;28;20187;-55
2023/01/16 10:10:20;;;;;;;35.07;23.83;;;;;;;8.13;83.74;99198.72;5070116;28;20351;-55
2023/01/16 10:12:54;;;;;;;40.57;27.27;;;;;;;8.27;83.35;99189.63;5069223;28;20194;-56
2023/01/16 10:15:32;;;;;;;41.57;27.70;;;;;;;8.23;83.23;99181.00;5070083;28;20255;-56
2023/01/16 10:18:10;;;;;;;45.57;28.67;;;;;;;8.35;83.04;99177.84;5071255;28;20678;-55
2023/01/16 10:20:49;;;;;;;39.53;26.43;;;;;;;8.49;82.62;99185.81;5071157;28;20199;-56
2023/01/16 10:23:41;;;;;;;43.97;28.33;;;;;;;8.48;82.45;99179.84;5071195;28;20700;-55
2023/01/16 10:26:13;;;;;;;38.87;26.37;;;;;;;8.39;82.65;99182.22;5071767;28;20219;-56
2023/01/16 10:28:56;;;;;;;43.07;29.87;;;;;;;8.42;82.56;99171.16;5071847;28;20190;-55
2023/01/16 10:31:29;;;;;;;42.57;27.90;;;;;;;8.25;82.38;99169.09;5072432;28;20188;-55
2023/01/16 10:34:01;;;;;;;42.43;26.53;;;;;;;7.75;84.46;99163.78;5071894;28;20638;-55
2023/01/16 10:36:32;;;;;;;36.60;26.97;;;;;;;7.88;85.15;99142.75;5072153;28;20198;-55
2023/01/16 10:39:00;;;;;;;40.70;27.40;;;;;;;8.09;84.70;99153.41;5072398;28;20210;-55
2023/01/16 10:50:02;;;;;;;31.07;23.27;;;;;;;8.19;83.56;99139.97;5071967;28;20202;-55
2023/01/16 10:52:29;;;;;;;29.83;22.27;;;;;;;8.15;83.37;99131.38;5071721;28;20196;-56
2023/01/16 10:54:58;;;;;;;30.53;22.33;;;;;;;8.10;83.33;99106.53;5071649;28;20191;-55
2023/01/16 10:57:26;;;;;;;32.10;22.50;;;;;;;8.10;83.89;99109.09;5071521;28;20199;-55
2023/01/16 10:59:57;;;;;;;34.67;23.30;;;;;;;8.19;83.98;99112.69;5071883;28;20584;-55
2023/01/16 11:02:31;;;;;;;36.93;24.27;;;;;;;8.34;82.95;99113.84;5072324;28;20202;-55
2023/01/16 11:04:59;;;;;;;33.30;22.27;;;;;;;8.28;82.98;99109.47;5071745;28;20748;-55
2023/01/16 11:07:29;;;;;;;31.13;21.50;;;;;;;8.27;82.88;99100.06;5072144;28;20190;-56
2023/01/16 11:09:56;;;;;;;37.90;24.83;;;;;;;8.28;82.73;99101.78;5071625;28;20218;-55
2023/01/16 11:20:49;;;;;;;35.00;23.00;;;;;;;8.08;84.02;99077.47;5071619;28;20194;-55
2023/01/16 11:23:19;;;;;;;36.60;24.03;;;;;;;8.04;84.39;99078.28;5071322;28;20567;-54
2023/01/16 11:25:48;;;;;;;36.73;24.83;;;;;;;8.00;84.44;99062.00;5071233;28;20216;-55
2023/01/16 11:28:20;;;;;;;39.20;25.50;;;;;;;8.22;84.46;99086.28;5071193;28;20194;-55
2023/01/16 11:30:48;;;;;;;37.40;24.67;;;;;;;8.20;83.95;99083.72;5071375;28;20183;-55
2023/01/16 11:33:21;;;;;;;33.20;22.23;;;;;;;8.25;83.21;99076.97;5071282;28;20187;-54
2023/01/16 11:35:54;;;;;;;33.23;21.37;;;;;;;8.40;82.70;99081.56;5071614;28;20187;-55
2023/01/16 11:38:22;;;;;;;34.83;24.77;;;;;;;8.33;82.21;99066.91;5071420;28;20244;-54
2023/01/16 11:40:51;;;;;;;38.43;24.77;;;;;;;8.35;82.63;99072.06;5071214;28;20288;-55
2023/01/16 11:46:22;;;;;;;39.20;23.10;;;;;;;8.25;83.09;99065.88;5071311;28;20206;-55
2023/01/16 11:48:55;;;;;;;38.47;24.53;;;;;;;8.21;83.31;99064.09;5072564;28;20248;-55
2023/01/16 11:51:27;;;;;;;40.70;25.70;;;;;;;8.23;82.84;99065.00;5051137;28;20636;-55
2023/01/16 11:53:56;;;;;;;43.47;27.07;;;;;;;8.36;83.01;99061.84;5049989;28;20192;-55
2023/01/16 11:56:45;;;;;;;48.10;32.00;;;;;;;8.42;82.80;99068.78;5048019;28;20447;-55
2023/01/16 11:59:27;;;;;;;48.67;28.10;;;;;;;8.44;82.52;99067.97;5052263;28;20225;-55
2023/01/16 12:02:19;;;;;;;40.70;26.37;;;;;;;8.38;82.52;99060.16;5053935;28;20196;-55
2023/01/16 12:07:49;;;;;;;41.77;26.50;;;;;;;8.29;83.43;99044.66;5076861;28;20783;-55
2023/01/16 12:10:27;;;;;;;43.57;26.97;;;;;;;8.38;83.19;99043.97;5074594;28;20191;-55
2023/01/16 12:15:57;;;;;;;39.77;23.80;;;;;;;8.41;82.14;99021.81;5075425;28;20190;-54
2023/01/16 12:18:35;;;;;;;43.50;26.40;;;;;;;8.44;82.40;99034.69;5074964;28;20369;-55
2023/01/16 12:21:07;;;;;;;43.17;26.47;;;;;;;8.30;82.30;99024.22;5075128;28;20253;-55
2023/01/16 12:23:50;;;;;;;41.43;25.80;;;;;;;8.22;83.04;99009.50;5074703;28;20199;-56
2023/01/16 12:26:22;;;;;;;41.20;25.90;;;;;;;8.08;83.49;99016.06;5077712;28;20215;-54
2023/01/16 12:29:01;;;;;;;44.07;27.43;;;;;;;8.17;83.69;99016.25;5075853;28;20184;-55
2023/01/16 12:31:44;;;;;;;45.23;27.40;;;;;;;8.34;83.33;99014.03;5074982;28;20536;-54
2023/01/16 12:34:32;;;;;;;37.53;24.73;;;;;;;8.34;82.40;99004.66;5075156;28;20183;-54
2023/01/16 12:37:13;;;;;;;41.97;26.77;;;;;;;8.30;82.47;98997.75;5081158;28;20677;-55
2023/01/16 12:39:49;;;;;;;34.87;22.83;;;;;;;8.22;82.27;98991.59;5067613;28;20285;-55